Asuzanmaru — JD2969 — position and weather

sailwx.info

Track history (hours):
 
Tides and Currents Weather Stations Pressure Air Temp Water Temp Dewpoint Dewpoint Depression Visibility Wind Speed Wind Dir Waves Ship Positions

Asuzanmaru

Last reported at 2017-Nov-18 21:19 UTC. Time now 2017-Nov-20 11:56 UTC.
Position N 35°29' E 139°55'.

Length 65 m; draft 3.7 m.

Type: Tanker. MMSI: 431001002.

Date/timePositionNaut miles runAvg speedWind from/ knotsBaromVisibWave heightAir tempDewpointWater temp
2017-Nov-18 21:19N 35°29' E 139°55'311.4
2017-Nov-18 21:01N 35°28' E 139°51'611.8
2017-Nov-18 20:31N 35°24' E 139°46'611.1
2017-Nov-18 20:01N 35°18' E 139°44'611.6
2017-Nov-18 19:29N 35°13' E 139°47'511.4
2017-Nov-18 19:00N 35°08' E 139°44'510.8
2017-Nov-18 18:30N 35°04' E 139°39'511.1
2017-Nov-18 18:01N 35°00' E 139°34'3 0.1
2017-Nov-17 05:32N 34°59' E 139°30'013.9
2017-Nov-17 05:30N 34°59' E 139°31'713.7
2017-Nov-17 05:00N 35°04' E 139°37'714.4
2017-Nov-17 04:30N 35°09' E 139°43'612.9
2017-Nov-17 04:00N 35°15' E 139°46'612.0
2017-Nov-17 03:30N 35°20' E 139°42'612.3
2017-Nov-17 03:00N 35°26' E 139°43'3 6.6
2017-Nov-17 02:30N 35°29' E 139°43'0 0.0
2017-Nov-17 02:00N 35°29' E 139°43'0 0.0
2017-Nov-17 01:30N 35°29' E 139°43'0 0.0
2017-Nov-17 01:00N 35°29' E 139°43'0 0.0
2017-Nov-17 00:30N 35°29' E 139°43'0 0.0
2017-Nov-17 00:00N 35°29' E 139°43'0 0.0
2017-Nov-16 23:31N 35°29' E 139°43'1 2.7
2017-Nov-16 23:00N 35°28' E 139°42'5 9.4
2017-Nov-16 22:30N 35°24' E 139°44'0 0.0
2017-Nov-16 22:00N 35°24' E 139°44'0 0.0
2017-Nov-16 21:30N 35°24' E 139°44'0 0.0
2017-Nov-16 21:00N 35°24' E 139°44'0 0.0
2017-Nov-16 20:30N 35°24' E 139°44'0 0.0
2017-Nov-16 20:00N 35°24' E 139°44'0 0.0
2017-Nov-16 19:30N 35°24' E 139°44'0 0.2
2017-Nov-16 19:00N 35°24' E 139°44'611.4
2017-Nov-16 18:30N 35°18' E 139°45'611.8
2017-Nov-16 18:00N 35°12' E 139°47'4 8.3
2017-Nov-16 17:30N 35°08' E 139°45'612.0
2017-Nov-16 17:00N 35°03' E 139°40'612.4
2017-Nov-16 16:30N 34°60' E 139°34'  
2017-Nov-13 01:19N 34°36' E 135°23'0 0.0
2017-Nov-13 00:55N 34°36' E 135°23'0 0.0
2017-Nov-13 00:30N 34°36' E 135°23'0 0.0
2017-Nov-12 23:58N 34°36' E 135°23'0 0.0
2017-Nov-12 23:30N 34°36' E 135°23'2 4.4
2017-Nov-12 22:59N 34°34' E 135°21'612.4
2017-Nov-12 22:30N 34°31' E 135°15'612.5
2017-Nov-12 21:59N 34°26' E 135°10'712.6
2017-Nov-12 21:25N 34°20' E 135°05'512.4
2017-Nov-12 20:59N 34°15' E 135°02'612.9
2017-Nov-12 20:30N 34°09' E 135°02'612.6
2017-Nov-12 20:00N 34°03' E 135°01'  
Track history (hours):
 
Tides and Currents Weather Stations Pressure Air Temp Water Temp Dewpoint Dewpoint Depression Visibility Wind Speed Wind Dir Waves Ship Positions

Asuzanmaru

Last reported at 2017-Nov-18 21:19 UTC. Time now 2017-Nov-20 11:56 UTC.
Position N 35°29' E 139°55'.

Length 65 m; draft 3.7 m.

Type: Tanker. MMSI: 431001002.

Date/timePositionNaut miles runAvg speedWind from/ knotsBaromVisibWave heightAir tempDewpointWater temp
2017-Nov-18 21:19N 35°29' E 139°55'311.4
2017-Nov-18 21:01N 35°28' E 139°51'611.8
2017-Nov-18 20:31N 35°24' E 139°46'611.1
2017-Nov-18 20:01N 35°18' E 139°44'611.6
2017-Nov-18 19:29N 35°13' E 139°47'511.4
2017-Nov-18 19:00N 35°08' E 139°44'510.8
2017-Nov-18 18:30N 35°04' E 139°39'511.1
2017-Nov-18 18:01N 35°00' E 139°34'3 0.1
2017-Nov-17 05:32N 34°59' E 139°30'013.9
2017-Nov-17 05:30N 34°59' E 139°31'713.7
2017-Nov-17 05:00N 35°04' E 139°37'714.4
2017-Nov-17 04:30N 35°09' E 139°43'612.9
2017-Nov-17 04:00N 35°15' E 139°46'612.0
2017-Nov-17 03:30N 35°20' E 139°42'612.3
2017-Nov-17 03:00N 35°26' E 139°43'3 6.6
2017-Nov-17 02:30N 35°29' E 139°43'0 0.0
2017-Nov-17 02:00N 35°29' E 139°43'0 0.0
2017-Nov-17 01:30N 35°29' E 139°43'0 0.0
2017-Nov-17 01:00N 35°29' E 139°43'0 0.0
2017-Nov-17 00:30N 35°29' E 139°43'0 0.0
2017-Nov-17 00:00N 35°29' E 139°43'0 0.0
2017-Nov-16 23:31N 35°29' E 139°43'1 2.7
2017-Nov-16 23:00N 35°28' E 139°42'5 9.4
2017-Nov-16 22:30N 35°24' E 139°44'0 0.0
2017-Nov-16 22:00N 35°24' E 139°44'0 0.0
2017-Nov-16 21:30N 35°24' E 139°44'0 0.0
2017-Nov-16 21:00N 35°24' E 139°44'0 0.0
2017-Nov-16 20:30N 35°24' E 139°44'0 0.0
2017-Nov-16 20:00N 35°24' E 139°44'0 0.0
2017-Nov-16 19:30N 35°24' E 139°44'0 0.2
2017-Nov-16 19:00N 35°24' E 139°44'611.4
2017-Nov-16 18:30N 35°18' E 139°45'611.8
2017-Nov-16 18:00N 35°12' E 139°47'4 8.3
2017-Nov-16 17:30N 35°08' E 139°45'612.0
2017-Nov-16 17:00N 35°03' E 139°40'612.4
2017-Nov-16 16:30N 34°60' E 139°34'  
2017-Nov-13 01:19N 34°36' E 135°23'0 0.0
2017-Nov-13 00:55N 34°36' E 135°23'0 0.0
2017-Nov-13 00:30N 34°36' E 135°23'0 0.0
2017-Nov-12 23:58N 34°36' E 135°23'0 0.0
2017-Nov-12 23:30N 34°36' E 135°23'2 4.4
2017-Nov-12 22:59N 34°34' E 135°21'612.4
2017-Nov-12 22:30N 34°31' E 135°15'612.5
2017-Nov-12 21:59N 34°26' E 135°10'712.6
2017-Nov-12 21:25N 34°20' E 135°05'512.4
2017-Nov-12 20:59N 34°15' E 135°02'612.9
2017-Nov-12 20:30N 34°09' E 135°02'612.6
2017-Nov-12 20:00N 34°03' E 135°01'  

Dump ship's entire track history